الصفحة الرئيسية
METAR-TAF:

METAR-TAF

مطار :

بوا فيستا, الرأس الأخضر

دائرة عرض: 16-08-15N, خط طول: 22-53-22W, ارتفاع: 21 متر

مراقبة الطقس الحالي

تاريخ ووقت الإصدار 59 دقيقة قبل الساعة 11:00UTC
ريح 21 عقدة من الشمال/الشمال الشرقي
درجة الحرارة 23°درجة مئوية
الرطوبة 65%
ضغط 1017 hPa
الرؤية 10 كم أو أكثر
غيوم مفككة على ارتفاع 1500 قدم

METAR: GVBA 241100Z 02021KT 9999 BKN015 23/16 Q1017 NOSIG

زمن: 10:59 (11:59 UTC)

توقعات

تاريخ ووقت الإصدار 59 دقيقة قبل الساعة 11:00UTC
التوقعات صالحة من24 الساعة 12 UTC إلى 25 الساعة 18 UTC
ريح 15 عقدة من الشمال/الشمال الشرقي
الرؤية 10 كم أو أكثر
غيوم متفرقة على ارتفاع 1500 قدم
مؤقت
من 25 الساعة 04 UTC إلى 25 الساعة 13 UTC
غيوم مفككة على ارتفاع 1500 قدم

TAF: GVBA 241100Z 2412/2518 03015KT 9999 SCT015 TEMPO 2504/2513 BKN015

أرصاد الطقس والتوقعات من أكثر من 4000 مطار (تقارير الطقس للمطار METAR والتنبؤ بالطقس بالمطارTAF).

المحطات المتاحة هي النقط الصفراء والحمراء على الخريطة.

حرك المؤشر فوق النقطة لمعرفة اسم المحطة.

ثم انقر لمعرفة أرصاد وتوقعات الطقس.

لتغيير الخارطة: اضغط على الأزرار الخضراء مع رمز الصليب الأسود للتكبير. على الزر الأخضر مع شرطة للتصغير، أو على الأسهم الخضراء للخرائط المجاورة.


METAR-TAF: